createdAt,value
2019-04-03T00:02:02.631Z,99354.97
2019-04-03T00:05:06.785Z,99350.99
2019-04-03T00:08:10.411Z,99357.76
2019-04-03T00:11:15.908Z,99357.25
2019-04-03T00:14:19.418Z,99349.42
2019-04-03T00:17:22.914Z,99357.38
2019-04-03T00:20:26.418Z,99371.50
2019-04-03T00:23:29.968Z,99396.70
2019-04-03T00:26:33.445Z,99429.15
2019-04-03T00:29:36.937Z,99442.41
2019-04-03T00:32:40.416Z,99441.72
2019-04-03T00:35:43.937Z,99419.30
2019-04-03T00:38:47.421Z,99393.97
2019-04-03T00:41:50.864Z,99388.31
2019-04-03T00:44:54.957Z,99404.23
2019-04-03T00:47:58.436Z,99418.83
2019-04-03T00:51:02.077Z,99413.14
2019-04-03T00:54:06.572Z,99388.58
2019-04-03T00:57:12.114Z,99390.16
2019-04-03T01:00:16.078Z,99387.50
2019-04-03T01:03:19.746Z,99377.23
2019-04-03T01:06:23.280Z,99371.72
2019-04-03T01:09:29.225Z,99375.70
2019-04-03T01:12:32.085Z,99386.78
2019-04-03T01:15:35.600Z,99384.13
2019-04-03T01:18:39.085Z,99369.06
2019-04-03T01:21:42.595Z,99356.27
2019-04-03T01:24:46.309Z,99354.73
2019-04-03T01:27:49.784Z,99363.16
2019-04-03T01:30:53.201Z,99359.19
2019-04-03T01:33:56.714Z,99357.86
2019-04-03T01:37:00.268Z,99362.22
2019-04-03T01:40:04.479Z,99361.84
2019-04-03T01:43:07.904Z,99342.58
2019-04-03T01:46:11.457Z,99338.95
2019-04-03T01:49:14.835Z,99339.92
2019-04-03T01:52:18.312Z,99338.60
2019-04-03T01:55:22.085Z,99335.61
2019-04-03T01:58:26.644Z,99330.64
2019-04-03T02:01:30.121Z,99325.00
2019-04-03T02:04:33.655Z,99322.95
2019-04-03T02:07:37.307Z,99313.32
2019-04-03T02:10:40.876Z,99313.32
2019-04-03T02:13:45.405Z,99301.59
2019-04-03T02:16:48.869Z,99303.05
2019-04-03T02:19:52.321Z,99300.87
2019-04-03T02:22:55.788Z,99301.38
2019-04-03T02:26:00.592Z,99306.69
2019-04-03T02:29:05.103Z,99306.31
2019-04-03T02:32:09.741Z,99306.95
2019-04-03T02:35:13.655Z,99295.70
2019-04-03T02:38:21.426Z,99292.36
2019-04-03T02:41:22.615Z,99290.66
2019-04-03T02:44:26.124Z,99290.66
2019-04-03T02:47:33.617Z,99288.86
2019-04-03T02:50:36.002Z,99290.66
2019-04-03T02:53:39.513Z,99288.38
2019-04-03T02:56:45.245Z,99288.52
2019-04-03T02:59:48.141Z,99280.21
2019-04-03T03:02:51.729Z,99278.03
2019-04-03T03:06:00.638Z,99279.70
2019-04-03T03:09:02.541Z,99281.54
2019-04-03T03:12:06.051Z,99272.39
2019-04-03T03:15:12.673Z,99274.05
2019-04-03T03:18:16.391Z,99266.70
2019-04-03T03:21:20.416Z,99257.42
2019-04-03T03:24:23.821Z,99256.95
2019-04-03T03:27:27.414Z,99251.64
2019-04-03T03:30:41.736Z,99250.80
2019-04-03T03:33:40.214Z,99241.89
2019-04-03T03:36:41.937Z,99241.52
2019-04-03T03:39:45.932Z,99232.87
2019-04-03T03:42:49.422Z,99231.55
2019-04-03T03:45:54.026Z,99220.94
2019-04-03T03:48:57.567Z,99217.44
2019-04-03T03:52:04.092Z,99220.56
2019-04-03T03:55:07.167Z,99212.26
2019-04-03T03:58:12.477Z,99206.95
2019-04-03T04:01:17.040Z,99203.70
2019-04-03T04:04:22.531Z,99198.02
2019-04-03T04:07:26.163Z,99200.83
2019-04-03T04:10:29.738Z,99193.70
2019-04-03T04:13:33.435Z,99194.69
2019-04-03T04:16:38.381Z,99189.03
2019-04-03T04:19:42.906Z,99189.98
2019-04-03T04:22:50.749Z,99190.36
2019-04-03T04:25:52.985Z,99172.75
2019-04-03T04:28:56.519Z,99170.09
2019-04-03T04:31:59.980Z,99169.63
2019-04-03T04:35:03.643Z,99163.47
2019-04-03T04:38:07.210Z,99169.28
2019-04-03T04:41:10.695Z,99168.43
2019-04-03T04:44:15.146Z,99170.36
2019-04-03T04:47:19.118Z,99175.66
2019-04-03T04:50:25.366Z,99177.37
2019-04-03T04:53:29.838Z,99177.84
2019-04-03T04:56:33.341Z,99180.97
2019-04-03T04:59:37.094Z,99182.30
2019-04-03T05:02:41.634Z,99174.34
2019-04-03T05:05:45.091Z,99174.00
2019-04-03T05:08:48.559Z,99171.34
2019-04-03T05:11:53.096Z,99167.02
2019-04-03T05:14:56.572Z,99169.68
2019-04-03T05:18:00.167Z,99167.84
2019-04-03T05:21:03.777Z,99172.67
2019-04-03T05:24:12.700Z,99172.33
2019-04-03T05:27:12.636Z,99171.48
2019-04-03T05:30:28.960Z,99173.66
2019-04-03T05:33:32.519Z,99178.61
2019-04-03T05:36:37.342Z,99185.59
2019-04-03T05:39:41.171Z,99177.63
2019-04-03T05:42:45.699Z,99171.98
2019-04-03T05:45:50.225Z,99175.97
2019-04-03T05:48:53.719Z,99171.98
2019-04-03T05:51:57.244Z,99172.94
2019-04-03T05:55:00.712Z,99168.96
2019-04-03T05:58:04.216Z,99172.59
2019-04-03T06:01:10.581Z,99175.97
2019-04-03T06:04:14.381Z,99169.94
2019-04-03T06:07:18.662Z,99169.94
2019-04-03T06:10:22.639Z,99172.59
2019-04-03T06:13:27.436Z,99173.92
2019-04-03T06:16:31.083Z,99176.09
2019-04-03T06:19:36.423Z,99170.55
2019-04-03T06:22:39.937Z,99161.98
2019-04-03T06:25:43.747Z,99164.64
2019-04-03T06:28:47.830Z,99163.45
2019-04-03T06:31:51.526Z,99161.98
2019-04-03T06:34:55.183Z,99160.45
2019-04-03T06:37:59.049Z,99163.58
2019-04-03T06:41:02.889Z,99169.94
2019-04-03T06:44:06.371Z,99160.92
2019-04-03T06:47:09.895Z,99167.30
2019-04-03T06:50:15.611Z,99162.59
2019-04-03T06:53:18.711Z,99155.97
2019-04-03T06:56:22.466Z,99155.97
2019-04-03T06:59:26.055Z,99156.81
2019-04-03T07:02:31.989Z,99156.69
2019-04-03T07:05:35.774Z,99154.37
2019-04-03T07:08:40.699Z,99158.35
2019-04-03T07:11:44.638Z,99152.44
2019-04-03T07:14:49.188Z,99149.53
2019-04-03T07:17:52.659Z,99152.17
2019-04-03T07:20:56.464Z,99145.76
2019-04-03T07:24:00.688Z,99147.94
2019-04-03T07:27:06.305Z,99149.34
2019-04-03T07:30:10.425Z,99142.84
2019-04-03T07:33:13.867Z,99143.26
2019-04-03T07:36:17.463Z,99141.80
2019-04-03T07:39:21.046Z,99141.80
2019-04-03T07:42:25.180Z,99139.86
2019-04-03T07:45:28.769Z,99143.20
2019-04-03T07:48:33.517Z,99143.58
2019-04-03T07:51:37.121Z,99136.09
2019-04-03T07:54:40.615Z,99142.25
2019-04-03T07:57:44.312Z,99145.72
2019-04-03T08:00:48.259Z,99140.14
2019-04-03T08:03:53.342Z,99143.14
2019-04-03T08:06:56.851Z,99146.98
2019-04-03T08:10:00.424Z,99141.20
2019-04-03T08:13:05.005Z,99131.44
2019-04-03T08:16:09.308Z,99119.23
2019-04-03T08:19:13.228Z,99130.53
2019-04-03T08:22:16.806Z,99131.72
2019-04-03T08:25:20.324Z,99139.55
2019-04-03T08:28:30.184Z,99133.48
2019-04-03T08:31:32.438Z,99134.30
2019-04-03T08:34:35.948Z,99135.29
2019-04-03T08:37:41.964Z,99142.27
2019-04-03T08:40:44.878Z,99143.32
2019-04-03T08:43:49.393Z,99137.03
2019-04-03T08:46:53.090Z,99140.67
2019-04-03T08:49:57.499Z,99143.52
2019-04-03T08:53:01.657Z,99150.02
2019-04-03T08:56:05.171Z,99146.05
2019-04-03T08:59:08.690Z,99145.06
2019-04-03T09:02:13.212Z,99142.27
2019-04-03T09:05:19.440Z,99152.41
2019-04-03T09:08:22.245Z,99143.83
2019-04-03T09:11:26.813Z,99138.16
2019-04-03T09:14:30.387Z,99131.52
2019-04-03T09:17:34.700Z,99125.26
2019-04-03T09:20:38.315Z,99119.44
2019-04-03T09:23:41.797Z,99122.47
2019-04-03T09:26:45.356Z,99118.97
2019-04-03T09:29:48.782Z,99115.25
2019-04-03T09:32:53.727Z,99116.92
2019-04-03T09:35:59.395Z,99114.27
2019-04-03T09:39:03.111Z,99113.45
2019-04-03T09:42:06.684Z,99107.64
2019-04-03T09:45:10.390Z,99114.78
2019-04-03T09:48:19.837Z,99109.34
2019-04-03T09:51:23.623Z,99099.67
2019-04-03T09:54:28.318Z,99102.19
2019-04-03T09:57:32.497Z,99094.47
2019-04-03T10:00:36.353Z,99082.52
2019-04-03T10:03:39.822Z,99082.52
2019-04-03T10:06:43.268Z,99080.55
2019-04-03T10:09:47.186Z,99077.22
2019-04-03T10:12:53.585Z,99074.25
2019-04-03T10:15:56.049Z,99066.44
2019-04-03T10:18:59.570Z,99065.48
2019-04-03T10:22:03.077Z,99070.84
2019-04-03T10:25:06.664Z,99065.06
2019-04-03T10:28:11.973Z,99058.42
2019-04-03T10:31:16.103Z,99053.46
2019-04-03T10:34:19.513Z,99046.17
2019-04-03T10:37:23.426Z,99047.91
2019-04-03T10:40:26.949Z,99046.58
2019-04-03T10:43:30.461Z,99037.29
2019-04-03T10:46:33.921Z,99045.93
2019-04-03T10:49:37.451Z,99046.08
2019-04-03T10:52:43.948Z,99043.42
2019-04-03T10:55:46.273Z,99038.45
2019-04-03T10:58:50.872Z,99028.17
2019-04-03T11:01:54.519Z,99030.55
2019-04-03T11:04:59.788Z,99034.05
2019-04-03T11:08:03.678Z,99026.56
2019-04-03T11:11:09.423Z,99030.55
2019-04-03T11:14:13.104Z,99024.95
2019-04-03T11:17:18.137Z,99014.81
2019-04-03T11:20:22.071Z,99017.33
2019-04-03T11:23:36.566Z,99007.41
2019-04-03T11:26:31.105Z,99002.92
2019-04-03T11:29:34.651Z,99003.97
2019-04-03T11:32:39.170Z,98999.55
2019-04-03T11:35:44.627Z,99001.39
2019-04-03T11:38:48.210Z,98998.23
2019-04-03T11:41:54.459Z,98994.30
2019-04-03T11:44:57.338Z,99001.64
2019-04-03T11:48:01.033Z,98998.50
2019-04-03T11:51:04.690Z,98997.99
2019-04-03T11:54:09.295Z,98992.06
2019-04-03T11:57:15.536Z,98992.69
2019-04-03T12:00:21.972Z,98989.27
2019-04-03T12:03:26.816Z,98981.10
2019-04-03T12:06:30.371Z,98986.23
2019-04-03T12:09:33.897Z,98978.92
2019-04-03T12:12:37.575Z,98979.12
2019-04-03T12:15:41.225Z,98975.42
2019-04-03T12:18:44.980Z,98975.84
2019-04-03T12:21:50.853Z,98966.26
2019-04-03T12:24:55.043Z,98963.94
2019-04-03T12:27:58.851Z,98962.94
2019-04-03T12:31:03.546Z,98957.01
2019-04-03T12:34:07.536Z,98951.03
2019-04-03T12:37:11.550Z,98951.73
2019-04-03T12:40:15.236Z,98945.95
2019-04-03T12:43:19.843Z,98940.68
2019-04-03T12:46:40.818Z,98924.88
2019-04-03T12:49:43.582Z,98919.77
2019-04-03T12:52:47.635Z,98918.58
2019-04-03T12:55:51.302Z,98909.33
2019-04-03T12:58:54.896Z,98910.98
2019-04-03T13:01:58.466Z,98904.71
2019-04-03T13:05:05.090Z,98900.03
2019-04-03T13:08:07.756Z,98898.73
2019-04-03T13:11:11.343Z,98900.21
2019-04-03T13:14:24.271Z,98895.27
2019-04-03T13:17:20.166Z,98886.16
2019-04-03T13:20:23.738Z,98883.64
2019-04-03T13:23:27.701Z,98878.52
2019-04-03T13:26:31.338Z,98879.10
2019-04-03T13:29:34.935Z,98872.45
2019-04-03T13:32:38.527Z,98870.32
2019-04-03T13:35:42.017Z,98869.98
2019-04-03T13:38:45.982Z,98870.32
2019-04-03T13:41:49.655Z,98858.36
2019-04-03T13:44:53.106Z,98861.72
2019-04-03T13:47:56.728Z,98854.56
2019-04-03T13:51:00.343Z,98852.75
2019-04-03T13:54:06.608Z,98854.41
2019-04-03T13:57:09.158Z,98863.38
2019-04-03T14:00:19.746Z,98856.92
2019-04-03T14:03:19.152Z,98853.45
2019-04-03T14:06:23.359Z,98845.17
2019-04-03T14:09:27.243Z,98839.86
2019-04-03T14:12:30.914Z,98839.53
2019-04-03T14:15:34.481Z,98834.22
2019-04-03T14:18:40.260Z,98821.63
2019-04-03T14:21:43.440Z,98820.98
2019-04-03T14:24:51.164Z,98815.83
2019-04-03T14:27:52.486Z,98823.34
2019-04-03T14:30:56.073Z,98814.86
2019-04-03T14:34:00.712Z,98817.84
2019-04-03T14:37:04.299Z,98814.05
2019-04-03T14:40:10.986Z,98809.09
2019-04-03T14:43:13.156Z,98800.94
2019-04-03T14:46:21.201Z,98805.44
2019-04-03T14:49:25.415Z,98803.14
2019-04-03T14:52:29.059Z,98804.11
2019-04-03T14:55:45.221Z,98806.94
2019-04-03T14:58:38.208Z,98801.98
2019-04-03T15:01:41.750Z,98795.19
2019-04-03T15:04:46.622Z,98792.71
2019-04-03T15:07:51.299Z,98790.23
2019-04-03T15:10:55.104Z,98786.91
2019-04-03T15:13:58.627Z,98787.58
2019-04-03T15:17:04.740Z,98782.80
2019-04-03T15:20:08.202Z,98781.49
2019-04-03T15:23:12.904Z,98784.81
2019-04-03T15:26:16.903Z,98789.80
2019-04-03T15:29:20.762Z,98782.36
2019-04-03T15:32:24.454Z,98776.68
2019-04-03T15:35:28.020Z,98776.38
2019-04-03T15:38:31.577Z,98765.73
2019-04-03T15:41:35.040Z,98767.91
2019-04-03T15:44:38.557Z,98763.08
2019-04-03T15:47:45.807Z,98757.94
2019-04-03T15:50:47.646Z,98755.46
2019-04-03T15:53:51.537Z,98756.13
2019-04-03T15:56:55.485Z,98747.97
2019-04-03T16:00:01.832Z,98746.81
2019-04-03T16:03:04.953Z,98745.81
2019-04-03T16:06:08.609Z,98747.48
2019-04-03T16:09:12.389Z,98747.81
2019-04-03T16:12:15.974Z,98740.16
2019-04-03T16:15:21.694Z,98740.48
2019-04-03T16:18:24.944Z,98740.14
2019-04-03T16:21:30.196Z,98738.48
2019-04-03T16:24:34.721Z,98730.66
2019-04-03T16:27:38.195Z,98730.82
2019-04-03T16:30:44.983Z,98733.17
2019-04-03T16:33:48.941Z,98731.48
2019-04-03T16:36:52.390Z,98739.97
2019-04-03T16:39:55.893Z,98731.78
2019-04-03T16:42:59.379Z,98726.81
2019-04-03T16:46:02.906Z,98731.44
2019-04-03T16:49:07.716Z,98725.09
2019-04-03T16:52:11.621Z,98728.42
2019-04-03T16:55:15.939Z,98732.36
2019-04-03T16:58:26.417Z,98722.72
2019-04-03T17:01:29.513Z,98726.08
2019-04-03T17:04:35.628Z,98724.38
2019-04-03T17:07:38.644Z,98724.38
2019-04-03T17:10:42.591Z,98720.06
2019-04-03T17:13:46.386Z,98717.05
2019-04-03T17:16:50.490Z,98725.67
2019-04-03T17:19:54.127Z,98719.00
2019-04-03T17:22:58.626Z,98715.02
2019-04-03T17:26:02.127Z,98711.33
2019-04-03T17:29:06.353Z,98711.33
2019-04-03T17:32:10.376Z,98715.63
2019-04-03T17:35:15.058Z,98706.65
2019-04-03T17:38:19.135Z,98702.34
2019-04-03T17:41:23.961Z,98700.50
2019-04-03T17:44:27.444Z,98699.33
2019-04-03T17:47:30.942Z,98696.67
2019-04-03T17:50:34.469Z,98694.31
2019-04-03T17:53:37.963Z,98697.97
2019-04-03T17:56:43.084Z,98690.64
2019-04-03T17:59:48.972Z,98692.81
2019-04-03T18:02:52.125Z,98688.67
2019-04-03T18:05:57.005Z,98691.81
2019-04-03T18:09:03.385Z,98692.45
2019-04-03T18:12:06.317Z,98686.65
2019-04-03T18:15:09.781Z,98690.33
2019-04-03T18:18:13.240Z,98694.16
2019-04-03T18:21:17.113Z,98696.67
2019-04-03T18:24:23.171Z,98697.63
2019-04-03T18:27:27.319Z,98698.63
2019-04-03T18:30:30.808Z,98699.63
2019-04-03T18:33:34.311Z,98702.29
2019-04-03T18:36:37.859Z,98702.95
2019-04-03T18:39:41.297Z,98706.60
2019-04-03T18:42:44.838Z,98703.64
2019-04-03T18:45:48.413Z,98699.02
2019-04-03T18:48:57.081Z,98696.67
2019-04-03T18:51:58.787Z,98694.34
2019-04-03T18:55:02.384Z,98698.33
2019-04-03T18:58:06.026Z,98693.50
2019-04-03T19:01:10.588Z,98694.98
2019-04-03T19:04:14.044Z,98687.85
2019-04-03T19:07:20.140Z,98698.00
2019-04-03T19:10:23.903Z,98687.00
2019-04-03T19:13:28.441Z,98690.02
2019-04-03T19:16:43.575Z,98689.66
2019-04-03T19:19:37.277Z,98693.34
2019-04-03T19:22:40.807Z,98693.70
2019-04-03T19:25:44.434Z,98691.53
2019-04-03T19:28:47.987Z,98692.02
2019-04-03T19:31:51.519Z,98693.70
2019-04-03T19:34:55.015Z,98686.70
2019-04-03T19:37:58.475Z,98685.67
2019-04-03T19:41:03.000Z,98697.17
2019-04-03T19:44:06.527Z,98692.31
2019-04-03T19:47:10.022Z,98700.66
2019-04-03T19:50:13.573Z,98700.29
2019-04-03T19:53:17.075Z,98695.67
2019-04-03T19:56:20.520Z,98698.81
2019-04-03T19:59:24.034Z,98703.64
2019-04-03T20:02:27.546Z,98705.94
2019-04-03T20:05:31.132Z,98708.59
2019-04-03T20:08:34.736Z,98703.92
2019-04-03T20:11:39.268Z,98707.88
2019-04-03T20:14:57.223Z,98703.89
2019-04-03T20:17:49.104Z,98701.36
2019-04-03T20:20:52.639Z,98698.37
2019-04-03T20:23:56.176Z,98692.54
2019-04-03T20:26:59.615Z,98689.22
2019-04-03T20:30:03.343Z,98698.13
2019-04-03T20:33:07.845Z,98697.13
2019-04-03T20:36:11.348Z,98703.11
2019-04-03T20:39:16.899Z,98699.61
2019-04-03T20:42:20.405Z,98701.09
2019-04-03T20:45:23.908Z,98711.05
2019-04-03T20:48:28.779Z,98708.03
2019-04-03T20:51:33.479Z,98701.39
2019-04-03T20:54:38.098Z,98708.22
2019-04-03T20:57:54.530Z,98711.02
2019-04-03T21:00:49.203Z,98708.84
2019-04-03T21:03:52.289Z,98710.33
2019-04-03T21:06:55.776Z,98708.52
2019-04-03T21:10:00.997Z,98711.33
2019-04-03T21:13:04.635Z,98711.63
2019-04-03T21:16:09.141Z,98703.51
2019-04-03T21:19:12.656Z,98708.27
2019-04-03T21:22:16.146Z,98705.98
2019-04-03T21:25:19.663Z,98706.61
2019-04-03T21:28:23.155Z,98703.95
2019-04-03T21:31:28.696Z,98700.42
2019-04-03T21:34:33.297Z,98704.26
2019-04-03T21:37:39.772Z,98702.59
2019-04-03T21:40:42.072Z,98705.92
2019-04-03T21:43:45.569Z,98706.40
2019-04-03T21:46:49.075Z,98700.73
2019-04-03T21:49:52.571Z,98700.24
2019-04-03T21:52:56.075Z,98693.42
2019-04-03T21:56:01.879Z,98698.73
2019-04-03T21:59:04.921Z,98693.91
2019-04-03T22:02:08.447Z,98698.73
2019-04-03T22:05:12.234Z,98690.92
2019-04-03T22:08:15.849Z,98694.20
2019-04-03T22:11:19.341Z,98693.20
2019-04-03T22:14:22.898Z,98690.22
2019-04-03T22:17:26.348Z,98692.88
2019-04-03T22:20:30.127Z,98689.41
2019-04-03T22:23:35.577Z,98685.22
2019-04-03T22:26:40.774Z,98682.56
2019-04-03T22:29:44.441Z,98684.40
2019-04-03T22:32:47.873Z,98686.21
2019-04-03T22:35:51.348Z,98690.67
2019-04-03T22:38:54.843Z,98690.82
2019-04-03T22:41:58.272Z,98697.13
2019-04-03T22:45:01.756Z,98699.78
2019-04-03T22:48:06.250Z,98698.45
2019-04-03T22:51:09.768Z,98704.76
2019-04-03T22:54:15.298Z,98706.23
2019-04-03T22:57:19.820Z,98703.09
2019-04-03T23:00:23.908Z,98707.41
2019-04-03T23:03:29.082Z,98694.11
2019-04-03T23:06:32.590Z,98692.12
2019-04-03T23:09:37.105Z,98685.48
2019-04-03T23:12:40.739Z,98683.48
2019-04-03T23:15:44.333Z,98677.48
2019-04-03T23:18:47.825Z,98680.14
2019-04-03T23:21:52.895Z,98683.78
2019-04-03T23:24:59.297Z,98683.64
2019-04-03T23:28:02.999Z,98685.74
2019-04-03T23:31:07.146Z,98680.44
2019-04-03T23:34:11.796Z,98683.60
2019-04-03T23:37:15.388Z,98680.10
2019-04-03T23:40:19.917Z,98677.11
2019-04-03T23:43:24.498Z,98667.13
2019-04-03T23:46:28.965Z,98664.80
2019-04-03T23:49:32.456Z,98657.21
2019-04-03T23:52:35.979Z,98657.36
2019-04-03T23:55:39.474Z,98652.53
2019-04-03T23:58:42.952Z,98652.20
